0PA6 weather

Hostetler Airport
Huntingdon, Pennsylvania, United States

Public forecast

Using degrees Fahrenheit for public forecast. Weather courtesy of forecast.io.

METAR (pilot weather report)

Closest report is University Park Airport, 13.1 nm (24.3 km) N. Retrieved 2019/05/23 11:53 UTC (20 minutes ago):

KUNV 231153Z 23004KT 10SM SCT065 16/13 A3013

TAF (pilot weather forecast)

Closest forecast is University Park Airport, 13.1 nm (24.3 km) N. Retrieved 2019/05/23 12:00 UTC (13 minutes ago):

TAF KUNV 231157Z 2312/2412 23004KT P6SM SCT070 FM231600 24011G18KT P6SM BKN050 FM231800 24012KT P6SM -SHRA VCTS OVC040CB TEMPO 2318/2321 4SM -SHRA OVC040 FM240000 27008KT P6SM SCT250 FM240700 29010KT P6SM FEW045